Time;durP1;ratioP1;P1;durP2;ratioP2;P2;SDS_P1;SDS_P2;PMS_P1;PMS_P2;Temp;Humidity;BMP_temperature;BMP_pressure;BME280_temperature;BME280_humidity;BME280_pressure;Samples;Min_cycle;Max_cycle;Signal;HPM_P1;HPM_P2
2021/03/27 00:02:06;;;;;;;20.85;11.30;;;;;;;8.28;63.85;100695.19;5012973;28;20041;-65
2021/03/27 00:05:01;;;;;;;24.48;12.20;;;;;;;8.33;63.61;100679.63;5012981;28;20070;-65
2021/03/27 00:07:34;;;;;;;19.48;10.32;;;;;;;8.18;64.15;100679.28;4995629;28;20137;-65
2021/03/27 00:10:35;;;;;;;20.75;11.50;;;;;;;8.15;64.31;100678.78;5011830;28;20129;-65
2021/03/27 00:13:23;;;;;;;17.55;10.85;;;;;;;8.08;64.52;100664.38;4985434;28;20060;-65
2021/03/27 00:16:17;;;;;;;19.58;11.07;;;;;;;8.11;64.49;100672.91;5012787;28;20138;-65
2021/03/27 00:19:02;;;;;;;19.58;10.40;;;;;;;8.18;63.95;100663.34;4984913;28;20050;-65
2021/03/27 00:21:37;;;;;;;19.35;10.07;;;;;;;8.19;64.00;100659.72;5012696;28;20052;-65
2021/03/27 00:24:10;;;;;;;23.60;11.30;;;;;;;8.19;63.77;100656.19;4995367;28;20038;-65
2021/03/27 00:26:48;;;;;;;22.63;11.63;;;;;;;8.13;64.07;100654.13;4995202;28;20195;-65
2021/03/27 00:29:17;;;;;;;17.80;10.65;;;;;;;8.08;63.96;100653.72;5011051;28;20477;-65
2021/03/27 00:31:45;;;;;;;20.33;11.90;;;;;;;8.11;63.87;100643.66;4995219;28;20347;-65
2021/03/27 00:34:14;;;;;;;19.98;11.02;;;;;;;8.11;64.00;100640.16;4994986;28;20496;-65
2021/03/27 00:36:46;;;;;;;23.08;11.27;;;;;;;8.01;64.27;100630.41;4995280;28;20451;-65
2021/03/27 00:39:17;;;;;;;21.65;10.65;;;;;;;7.99;64.13;100632.38;5012048;28;20037;-65
2021/03/27 00:42:02;;;;;;;17.13;10.60;;;;;;;8.03;64.33;100631.09;4994977;28;20081;-65
2021/03/27 00:44:52;;;;;;;19.27;10.82;;;;;;;7.95;64.62;100636.31;4994949;28;20042;-64
2021/03/27 00:47:22;;;;;;;17.17;9.93;;;;;;;7.90;64.71;100622.63;5011846;28;20048;-65
2021/03/27 00:49:55;;;;;;;16.92;10.95;;;;;;;7.89;64.59;100626.28;5010891;28;20052;-65
2021/03/27 00:52:21;;;;;;;23.02;11.73;;;;;;;7.85;64.95;100622.25;5012186;28;20366;-65
2021/03/27 00:54:55;;;;;;;;;;;;;;;7.76;65.24;100615.97;5012475;28;20042;-65
2021/03/27 00:57:26;;;;;;;16.85;10.18;;;;;;;7.82;65.06;100619.88;5012244;28;20334;-65
2021/03/27 01:00:14;;;;;;;19.55;10.85;;;;;;;7.81;65.03;100619.03;4994615;28;20069;-65
2021/03/27 01:03:08;;;;;;;16.30;10.05;;;;;;;7.81;64.79;100610.22;5011925;28;20073;-65
2021/03/27 01:05:55;;;;;;;21.02;10.45;;;;;;;7.72;65.40;100600.47;5011282;28;20042;-65
2021/03/27 01:08:48;;;;;;;18.83;10.15;;;;;;;7.75;65.17;100610.81;5006843;28;20044;-65
2021/03/27 01:11:47;;;;;;;16.42;11.73;;;;;;;7.74;65.14;100601.16;4988503;28;20045;-64
2021/03/27 01:14:25;;;;;;;23.80;11.73;;;;;;;7.77;65.21;100600.88;4994355;28;20463;-64
2021/03/27 01:16:54;;;;;;;21.83;10.55;;;;;;;7.73;65.33;100592.38;4978309;28;20038;-65
2021/03/27 01:19:34;;;;;;;18.70;10.18;;;;;;;7.66;65.51;100593.13;4993891;28;20034;-65
2021/03/27 01:22:05;;;;;;;16.65;9.90;;;;;;;7.64;65.60;100581.78;5011664;28;20041;-65
2021/03/27 01:24:31;;;;;;;20.02;10.70;;;;;;;7.66;65.23;100578.00;5010770;28;20548;-65
2021/03/27 01:27:15;;;;;;;15.82;10.18;;;;;;;7.69;65.35;100572.38;4994024;28;20120;-65
2021/03/27 01:30:03;;;;;;;18.92;10.52;;;;;;;7.65;65.36;100565.69;5011144;28;20501;-65
2021/03/27 01:32:49;;;;;;;22.42;11.65;;;;;;;7.66;65.31;100561.22;5010427;28;20044;-65
2021/03/27 01:35:21;;;;;;;;;;;;;;;7.65;65.52;100554.22;4994501;28;20045;-65
2021/03/27 01:37:56;;;;;;;17.42;9.95;;;;;;;7.73;65.21;100546.38;5010964;28;19968;-65
2021/03/27 01:40:22;;;;;;;18.83;10.35;;;;;;;7.72;65.00;100547.31;5011185;28;20045;-65
2021/03/27 01:43:17;;;;;;;19.37;11.20;;;;;;;7.69;65.13;100540.50;5010326;28;20037;-65
2021/03/27 01:46:17;;;;;;;24.90;10.88;;;;;;;7.81;64.41;100533.16;5010319;28;20096;-65
2021/03/27 01:49:00;;;;;;;20.30;10.00;;;;;;;7.75;64.71;100528.41;5010970;28;20072;-65
2021/03/27 01:51:47;;;;;;;19.70;11.00;;;;;;;7.67;64.95;100520.38;5011154;28;20049;-65
2021/03/27 01:54:21;;;;;;;20.10;10.35;;;;;;;7.57;65.29;100525.75;5011110;28;20041;-64
2021/03/27 01:57:03;;;;;;;24.63;11.65;;;;;;;7.54;65.41;100524.22;4993760;28;20029;-65
2021/03/27 01:59:46;;;;;;;18.98;9.45;;;;;;;7.46;65.72;100518.81;5010748;28;20038;-65
2021/03/27 02:02:20;;;;;;;18.92;12.07;;;;;;;7.22;66.60;100511.38;4993690;28;20034;-64
2021/03/27 02:05:11;;;;;;;22.73;10.60;;;;;;;7.07;66.93;100508.38;4993999;28;20434;-64
2021/03/27 02:07:48;;;;;;;16.73;10.25;;;;;;;7.02;66.92;100499.97;4980469;28;20137;-64
2021/03/27 02:10:27;;;;;;;17.38;10.55;;;;;;;7.05;66.93;100505.03;5010912;28;20044;-64
2021/03/27 02:13:07;;;;;;;19.33;10.98;;;;;;;6.96;67.17;100504.06;5010946;28;20095;-64
2021/03/27 02:15:35;;;;;;;23.05;11.63;;;;;;;6.91;67.29;100497.53;5010960;28;20045;-64
2021/03/27 02:18:20;;;;;;;20.92;10.45;;;;;;;6.88;67.33;100495.16;5010546;28;20038;-64
2021/03/27 02:21:04;;;;;;;14.18;8.45;;;;;;;6.85;67.48;100490.13;5010121;28;20045;-64
2021/03/27 02:23:53;;;;;;;20.10;11.65;;;;;;;6.79;67.55;100493.34;5009725;28;20025;-64
2021/03/27 02:26:30;;;;;;;18.25;10.63;;;;;;;6.78;67.56;100486.38;4993525;28;20440;-64
2021/03/27 02:29:31;;;;;;;17.52;10.48;;;;;;;6.80;67.53;100485.25;4993138;28;20455;-64
2021/03/27 02:32:15;;;;;;;21.48;11.80;;;;;;;6.87;67.58;100485.53;4993413;28;20466;-65
2021/03/27 02:35:08;;;;;;;18.98;11.02;;;;;;;7.06;66.50;100480.13;5009915;28;20116;-64
2021/03/27 02:37:45;;;;;;;22.98;10.95;;;;;;;7.05;66.58;100483.78;5009472;28;20108;-64
2021/03/27 02:40:25;;;;;;;19.65;9.52;;;;;;;7.18;65.91;100481.63;4993298;28;20096;-64
2021/03/27 02:43:12;;;;;;;16.73;9.10;;;;;;;7.22;65.64;100476.03;5009747;28;20045;-64
2021/03/27 02:45:46;;;;;;;17.65;9.85;;;;;;;7.24;65.84;100477.56;5010720;28;20030;-64
2021/03/27 02:48:29;;;;;;;18.88;10.68;;;;;;;7.25;65.66;100473.91;5010735;28;20136;-64
2021/03/27 02:51:03;;;;;;;22.10;10.43;;;;;;;7.18;65.97;100468.34;4993286;28;20510;-64
2021/03/27 02:53:57;;;;;;;17.70;10.20;;;;;;;7.16;66.15;100478.28;4977218;28;20087;-64
2021/03/27 02:56:34;;;;;;;19.45;10.15;;;;;;;7.15;66.16;100473.94;5009547;28;20038;-65
2021/03/27 02:59:16;;;;;;;;;;;;;;;7.08;66.38;100467.56;5009695;28;20108;-64
2021/03/27 03:02:16;;;;;;;15.77;9.60;;;;;;;7.18;66.12;100463.03;5010452;28;19920;-65
2021/03/27 03:05:05;;;;;;;19.92;10.73;;;;;;;7.15;66.39;100460.69;5010463;28;20048;-64
2021/03/27 03:07:36;;;;;;;19.10;9.70;;;;;;;7.22;66.02;100452.13;4992727;28;20178;-64
2021/03/27 03:10:22;;;;;;;18.42;10.15;;;;;;;7.22;65.95;100452.97;4993187;28;20068;-64
2021/03/27 03:13:00;;;;;;;16.40;9.65;;;;;;;7.29;65.66;100451.38;5023765;23;20107;-77
2021/03/27 03:15:37;;;;;;;16.20;9.63;;;;;;;7.30;65.57;100447.72;5033644;28;20111;-76
2021/03/27 03:18:14;;;;;;;16.80;9.32;;;;;;;7.28;65.74;100446.22;5034131;28;20037;-76
2021/03/27 03:21:06;;;;;;;17.27;9.77;;;;;;;7.40;65.32;100448.53;5033455;28;20033;-76
2021/03/27 03:23:42;;;;;;;17.08;8.98;;;;;;;7.35;65.66;100434.00;5033271;28;20063;-77
2021/03/27 03:26:47;;;;;;;16.95;10.27;;;;;;;7.31;65.56;100414.06;5034009;28;20049;-76
2021/03/27 03:29:25;;;;;;;16.25;9.55;;;;;;;7.27;66.14;100426.78;5033769;28;20034;-76
2021/03/27 03:32:00;;;;;;;21.15;10.30;;;;;;;7.26;65.99;100417.16;5033176;28;20049;-77
2021/03/27 03:35:03;;;;;;;17.77;9.55;;;;;;;7.18;66.04;100422.38;5033941;28;20045;-76
2021/03/27 03:37:50;;;;;;;16.80;9.75;;;;;;;7.28;65.95;100422.31;5033636;28;20373;-77
2021/03/27 03:40:19;;;;;;;18.45;11.02;;;;;;;7.21;66.23;100413.28;5033913;28;20469;-77
2021/03/27 03:43:10;;;;;;;24.38;10.80;;;;;;;7.27;65.76;100402.88;5016388;28;20041;-77
2021/03/27 03:45:49;;;;;;;16.75;9.50;;;;;;;7.26;66.10;100406.53;5033954;28;20067;-77
2021/03/27 03:48:38;;;;;;;20.38;10.00;;;;;;;7.33;65.81;100409.44;5032455;28;20092;-77
2021/03/27 03:51:16;;;;;;;18.98;9.88;;;;;;;7.39;65.46;100398.19;5032646;28;20042;-77
2021/03/27 03:53:45;;;;;;;17.35;9.10;;;;;;;7.43;65.42;100402.22;5033718;28;20116;-77
2021/03/27 03:56:20;;;;;;;15.73;9.85;;;;;;;7.43;65.28;100381.00;5033576;28;20420;-77
2021/03/27 03:59:19;;;;;;;17.63;9.68;;;;;;;7.52;65.35;100396.03;5033333;28;20048;-77
2021/03/27 04:01:59;;;;;;;14.50;8.77;;;;;;;7.51;65.09;100389.03;5033420;28;20048;-77
2021/03/27 04:04:28;;;;;;;18.27;9.63;;;;;;;7.60;64.53;100393.44;5031064;28;20044;-78
2021/03/27 04:07:05;;;;;;;17.90;9.43;;;;;;;7.60;64.44;100398.75;5033264;28;20056;-77
2021/03/27 04:09:36;;;;;;;19.25;10.25;;;;;;;7.60;64.68;100403.22;5048815;28;20049;-77
2021/03/27 04:12:19;;;;;;;15.77;8.95;;;;;;;7.53;64.74;100394.19;5032194;28;20041;-77
2021/03/27 04:15:05;;;;;;;20.45;9.88;;;;;;;7.56;64.94;100396.53;5033358;28;20044;-76
2021/03/27 04:17:41;;;;;;;14.07;8.73;;;;;;;7.49;65.60;100398.13;5032990;28;20041;-78
2021/03/27 04:20:19;;;;;;;16.48;9.85;;;;;;;7.47;65.62;100398.31;5033122;28;20480;-77
2021/03/27 04:22:59;;;;;;;17.23;8.85;;;;;;;7.35;66.46;100407.44;5032766;28;20091;-77
2021/03/27 04:25:33;;;;;;;18.25;9.85;;;;;;;7.37;66.39;100398.38;5032209;28;20034;-77
2021/03/27 04:28:09;;;;;;;17.42;9.93;;;;;;;7.40;66.15;100392.75;5032615;28;20466;-77
2021/03/27 04:30:42;;;;;;;20.17;9.68;;;;;;;7.45;66.24;100396.78;5048728;28;20759;-77
2021/03/27 04:33:32;;;;;;;18.65;10.18;;;;;;;7.49;65.91;100391.03;5032105;28;20099;-77
2021/03/27 04:36:27;;;;;;;15.32;9.13;;;;;;;7.55;65.91;100384.25;5031957;28;20052;-78
2021/03/27 04:39:02;;;;;;;13.60;8.57;;;;;;;7.61;65.53;100392.47;5048094;28;20091;-77
2021/03/27 04:41:54;;;;;;;17.88;9.27;;;;;;;7.70;65.32;100403.16;5032822;28;20416;-79
2021/03/27 04:44:26;;;;;;;17.38;10.00;;;;;;;7.76;65.24;100397.22;5031570;28;20044;-78
2021/03/27 04:46:59;;;;;;;17.75;10.10;;;;;;;7.83;65.16;100395.63;5048336;28;20037;-78
2021/03/27 04:49:51;;;;;;;16.80;9.18;;;;;;;7.87;65.22;100402.31;5032250;28;20037;-78
2021/03/27 04:52:32;;;;;;;17.20;9.30;;;;;;;7.85;65.13;100396.31;4986596;28;20057;-79
2021/03/27 04:55:19;;;;;;;15.20;9.48;;;;;;;7.88;65.65;100411.94;5032569;28;20351;-77
2021/03/27 04:58:05;;;;;;;16.20;8.65;;;;;;;7.94;65.11;100416.66;5030875;28;20044;-78
2021/03/27 05:01:11;;;;;;;22.33;9.82;;;;;;;7.96;65.66;100430.63;5032496;28;20048;-77
2021/03/27 05:03:51;;;;;;;19.00;8.75;;;;;;;7.94;66.44;100432.63;4983723;28;20141;-77
2021/03/27 05:06:27;;;;;;;14.90;9.20;;;;;;;7.81;67.78;100456.06;5032190;28;20052;-79
2021/03/27 05:09:11;;;;;;;18.90;10.25;;;;;;;7.61;71.31;100469.50;5032031;28;20034;-78
2021/03/27 05:11:58;;;;;;;12.82;8.38;;;;;;;7.14;74.25;100476.75;5032067;28;20128;-78
2021/03/27 05:15:01;;;;;;;14.80;6.25;;;;;;;6.88;75.36;100477.44;5032174;28;20132;-77
2021/03/27 05:17:46;;;;;;;6.97;3.63;;;;;;;6.53;76.77;100491.31;5032034;28;20128;-78
2021/03/27 05:20:11;;;;;;;7.85;4.10;;;;;;;6.30;79.10;100490.81;5047543;28;20044;-77
2021/03/27 05:23:03;;;;;;;4.73;3.00;;;;;;;6.06;79.95;100507.13;5031826;28;20037;-78
2021/03/27 05:25:35;;;;;;;6.05;3.47;;;;;;;5.83;81.24;100522.41;5047453;28;20087;-77
2021/03/27 05:28:37;;;;;;;6.25;2.63;;;;;;;5.67;82.24;100518.50;5014947;28;20037;-80
2021/03/27 05:31:09;;;;;;;8.05;2.13;;;;;;;5.48;82.67;100539.63;5015991;28;20037;-86
2021/03/27 05:34:02;;;;;;;5.70;2.40;;;;;;;5.33;83.47;100556.84;5031377;28;20552;-79
2021/03/27 05:36:51;;;;;;;7.03;2.30;;;;;;;5.28;84.25;100557.25;4988502;28;20056;-79
2021/03/27 05:39:28;;;;;;;5.10;3.40;;;;;;;5.18;85.63;100572.25;5030691;28;20099;-79
2021/03/27 05:42:36;;;;;;;8.85;4.30;;;;;;;5.23;86.08;100584.13;5030871;28;20044;-79
2021/03/27 05:45:33;;;;;;;6.15;2.83;;;;;;;5.22;86.26;100592.19;5031535;28;20061;-77
2021/03/27 05:48:47;;;;;;;4.18;1.35;;;;;;;4.88;83.71;100604.81;5031205;28;20056;-78
2021/03/27 05:51:58;;;;;;;1.60;0.70;;;;;;;4.73;83.89;100615.72;5031617;28;20425;-77
2021/03/27 05:54:49;;;;;;;1.45;0.50;;;;;;;4.65;83.27;100610.22;5031639;28;20108;-77
2021/03/27 05:57:41;;;;;;;1.92;0.80;;;;;;;4.58;84.29;100615.16;5031495;28;20029;-79
2021/03/27 06:00:30;;;;;;;2.92;0.65;;;;;;;4.52;84.90;100613.03;5030489;28;20493;-78
2021/03/27 06:03:17;;;;;;;0.85;0.68;;;;;;;4.40;84.13;100611.38;5031417;28;20037;-77
2021/03/27 06:05:52;;;;;;;0.90;0.50;;;;;;;4.37;84.95;100628.34;5030398;28;20033;-78
2021/03/27 06:08:39;;;;;;;1.20;0.70;;;;;;;4.38;85.17;100629.19;5031109;28;20048;-78
2021/03/27 06:11:42;;;;;;;1.15;0.85;;;;;;;4.20;84.97;100632.34;5013740;28;20033;-77
2021/03/27 06:14:11;;;;;;;2.17;0.90;;;;;;;4.22;85.32;100630.44;4960829;28;20134;-76
2021/03/27 06:17:19;;;;;;;1.77;1.20;;;;;;;4.23;85.45;100631.25;5014105;28;20045;-75
2021/03/27 06:20:21;;;;;;;3.88;1.50;;;;;;;4.16;85.35;100635.38;4976694;28;20045;-75
2021/03/27 06:23:24;;;;;;;1.17;1.05;;;;;;;4.26;85.50;100640.75;5031283;28;20037;-76
2021/03/27 06:26:00;;;;;;;2.90;1.17;;;;;;;4.20;85.26;100644.75;5031161;28;20116;-76
2021/03/27 06:29:02;;;;;;;2.47;1.00;;;;;;;4.29;85.47;100645.81;5046584;28;20045;-76
2021/03/27 06:32:02;;;;;;;4.68;1.58;;;;;;;4.38;85.24;100645.91;5030042;28;20122;-76
2021/03/27 06:34:51;;;;;;;0.95;0.88;;;;;;;4.26;85.58;100641.63;5030068;28;20025;-76
2021/03/27 06:37:34;;;;;;;2.38;1.13;;;;;;;4.30;85.85;100643.03;5013671;28;20029;-75
2021/03/27 06:40:05;;;;;;;1.58;1.13;;;;;;;4.35;85.93;100655.88;5030813;28;20041;-76
2021/03/27 06:42:37;;;;;;;2.00;1.17;;;;;;;4.46;86.06;100653.19;5030990;28;20088;-76
2021/03/27 06:45:22;;;;;;;3.92;1.63;;;;;;;4.54;86.19;100644.63;5032368;28;20431;-76
2021/03/27 06:47:50;;;;;;;6.97;2.37;;;;;;;4.49;85.89;100647.66;5034580;28;20033;-76
2021/03/27 06:50:35;;;;;;;6.00;1.88;;;;;;;4.55;85.89;100647.16;5034634;28;20076;-76
2021/03/27 06:53:19;;;;;;;2.40;1.80;;;;;;;4.67;86.24;100660.34;5034722;28;20076;-76
2021/03/27 06:56:12;;;;;;;5.50;1.88;;;;;;;4.73;86.55;100647.44;5034573;28;20120;-77
2021/03/27 06:59:04;;;;;;;10.10;2.80;;;;;;;4.78;86.60;100647.06;5034241;28;20033;-76
2021/03/27 07:01:48;;;;;;;5.90;1.90;;;;;;;4.69;86.57;100658.41;5049726;28;20049;-76
2021/03/27 07:04:35;;;;;;;7.93;1.98;;;;;;;4.73;87.11;100668.59;5033015;28;20450;-76
2021/03/27 07:07:19;;;;;;;5.15;1.92;;;;;;;4.60;87.26;100662.63;5032795;28;20033;-76
2021/03/27 07:10:36;;;;;;;4.93;1.80;;;;;;;4.59;87.32;100679.47;5033517;28;20135;-76
2021/03/27 07:13:22;;;;;;;8.90;2.15;;;;;;;4.54;87.51;100685.16;5000395;28;20045;-76
2021/03/27 07:16:21;;;;;;;4.75;2.63;;;;;;;4.57;88.04;100700.75;5032910;28;20410;-77
2021/03/27 07:19:17;;;;;;;5.00;2.25;;;;;;;4.63;88.10;100702.03;5033485;28;20034;-77
2021/03/27 07:22:14;;;;;;;4.55;2.15;;;;;;;4.60;87.84;100699.66;5015963;28;20128;-77
2021/03/27 07:24:47;;;;;;;4.90;2.45;;;;;;;5.36;87.83;100700.41;5032550;28;20037;-76
2021/03/27 07:27:31;;;;;;;3.17;1.98;;;;;;;5.70;84.54;100703.63;5033531;28;20041;-76
2021/03/27 07:30:06;;;;;;;2.67;1.63;;;;;;;5.34;82.87;100718.22;5032517;28;20033;-78
2021/03/27 07:32:54;;;;;;;5.97;2.25;;;;;;;5.10;84.24;100725.56;5033508;28;20034;-76
2021/03/27 07:35:38;;;;;;;5.18;1.55;;;;;;;4.94;84.06;100731.28;5032395;28;20095;-76
2021/03/27 07:38:42;;;;;;;6.43;1.88;;;;;;;4.71;84.01;100727.88;5033009;28;20365;-76
2021/03/27 07:41:29;;;;;;;1.85;1.40;;;;;;;4.72;82.57;100733.03;5033377;28;20055;-76
2021/03/27 07:44:22;;;;;;;3.72;1.33;;;;;;;4.75;83.27;100748.66;5032399;28;20044;-75
2021/03/27 07:47:06;;;;;;;2.35;1.40;;;;;;;4.82;83.34;100749.00;5033378;28;20033;-76
2021/03/27 07:50:09;;;;;;;3.20;1.30;;;;;;;4.68;83.21;100752.75;5033014;28;20029;-75
2021/03/27 07:52:41;;;;;;;3.67;1.23;;;;;;;4.66;82.33;100760.00;5015548;28;20049;-75
2021/03/27 07:55:28;;;;;;;6.40;1.10;;;;;;;4.69;82.84;100761.56;5032958;28;20040;-75
2021/03/27 07:58:21;;;;;;;2.95;1.00;;;;;;;4.84;82.68;100760.28;5031868;28;20037;-76
2021/03/27 08:01:24;;;;;;;4.07;1.00;;;;;;;4.81;82.63;100771.97;5033390;28;20048;-76
2021/03/27 08:04:08;;;;;;;3.90;0.93;;;;;;;4.89;82.46;100771.31;5031834;28;20488;-76
2021/03/27 08:06:47;;;;;;;3.60;0.93;;;;;;;4.97;82.24;100774.19;5032902;28;20045;-76
2021/03/27 08:09:56;;;;;;;3.70;0.95;;;;;;;5.19;82.81;100769.78;5032472;28;20469;-76
2021/03/27 08:12:37;;;;;;;8.98;1.25;;;;;;;5.43;80.42;100783.66;5032620;28;20049;-76
2021/03/27 08:15:39;;;;;;;3.03;1.10;;;;;;;5.56;80.48;100772.00;5033178;28;20053;-76
2021/03/27 08:18:17;;;;;;;7.38;1.45;;;;;;;5.62;80.24;100779.41;5032134;28;20134;-75
2021/03/27 08:21:04;;;;;;;2.35;1.30;;;;;;;5.60;80.55;100781.38;5015091;28;20045;-75
2021/03/27 08:24:01;;;;;;;3.28;1.45;;;;;;;5.64;79.94;100798.69;5031538;28;20045;-75
2021/03/27 08:26:59;;;;;;;3.53;1.17;;;;;;;5.64;79.05;100806.63;5047967;28;20034;-75
2021/03/27 08:29:43;;;;;;;4.03;1.17;;;;;;;5.81;78.87;100795.47;5031153;28;20057;-76
2021/03/27 08:32:44;;;;;;;2.72;1.58;;;;;;;5.82;79.06;100794.47;5032275;28;20511;-76
2021/03/27 08:35:23;;;;;;;6.95;2.03;;;;;;;5.82;78.71;100802.44;5032389;28;20041;-75
2021/03/27 08:38:25;;;;;;;4.18;1.33;;;;;;;5.93;78.75;100809.47;5031873;28;20090;-76
2021/03/27 08:41:24;;;;;;;5.55;1.42;;;;;;;5.84;78.15;100799.66;5031964;28;20045;-76
2021/03/27 08:44:20;;;;;;;2.95;1.55;;;;;;;5.86;79.23;100817.09;5014882;28;20477;-76
2021/03/27 08:47:13;;;;;;;6.18;2.13;;;;;;;5.77;78.59;100825.00;5031598;28;20060;-76
2021/03/27 08:50:16;;;;;;;7.63;3.88;;;;;;;5.72;79.99;100828.03;5031833;28;20033;-76
2021/03/27 08:52:50;;;;;;;6.55;2.30;;;;;;;5.75;79.01;100837.53;5030809;28;20454;-76
2021/03/27 08:55:31;;;;;;;8.48;2.80;;;;;;;5.68;78.70;100834.53;5030770;28;20474;-76
2021/03/27 08:58:02;;;;;;;8.02;2.83;;;;;;;5.66;78.59;100847.91;5030504;28;20041;-76
2021/03/27 09:00:56;;;;;;;8.30;3.28;;;;;;;5.80;78.46;100849.41;5031749;28;20080;-76
2021/03/27 09:03:24;;;;;;;9.13;3.05;;;;;;;6.11;78.05;100846.81;5031140;28;20037;-77
2021/03/27 09:06:15;;;;;;;5.95;2.78;;;;;;;6.38;77.45;100843.63;5030493;28;20040;-78
2021/03/27 09:08:47;;;;;;;13.20;2.90;;;;;;;6.72;76.23;100844.19;5030171;28;20037;-78
2021/03/27 09:11:50;;;;;;;9.15;3.10;;;;;;;7.02;75.21;100850.38;5030490;28;20037;-77
2021/03/27 09:14:37;;;;;;;12.45;2.90;;;;;;;7.37;73.60;100841.94;5031527;28;20070;-78
2021/03/27 09:17:21;;;;;;;7.95;4.07;;;;;;;7.15;74.18;100850.13;5030113;28;20045;-76
2021/03/27 09:20:19;;;;;;;11.85;3.25;;;;;;;6.95;74.21;100850.13;5030833;28;20065;-76
2021/03/27 09:23:01;;;;;;;9.40;4.20;;;;;;;6.71;74.43;100862.88;5031896;28;20374;-75
2021/03/27 09:26:04;;;;;;;17.52;4.15;;;;;;;6.85;73.38;100866.97;5031772;28;20083;-75
2021/03/27 09:28:51;;;;;;;6.65;3.78;;;;;;;6.63;74.30;100882.13;5031062;28;20556;-75
2021/03/27 09:31:55;;;;;;;11.00;4.05;;;;;;;6.79;72.69;100880.78;5030949;28;20037;-76
2021/03/27 09:34:23;;;;;;;12.55;4.15;;;;;;;7.35;70.71;100874.88;5031552;28;20032;-78
2021/03/27 09:37:17;;;;;;;9.88;4.30;;;;;;;7.38;69.96;100871.97;5030567;28;20037;-78
2021/03/27 09:40:08;;;;;;;13.43;5.72;;;;;;;7.60;69.47;100876.16;5031643;28;20044;-80
2021/03/27 09:43:04;;;;;;;10.43;4.75;;;;;;;7.54;69.83;100876.75;5031907;28;20037;-81
2021/03/27 09:46:08;;;;;;;12.95;5.25;;;;;;;7.88;67.92;100877.13;5030850;28;20813;-81
2021/03/27 09:48:52;;;;;;;15.13;5.80;;;;;;;7.71;68.89;100875.19;5029777;28;20045;-82
2021/03/27 09:51:39;;;;;;;7.13;4.07;;;;;;;7.13;70.40;100898.06;5030271;28;20033;-81
2021/03/27 09:54:18;;;;;;;16.95;4.82;;;;;;;6.92;69.12;100897.31;5031544;28;20041;-78
2021/03/27 09:56:59;;;;;;;12.77;5.50;;;;;;;7.21;69.08;100897.41;5031606;28;20079;-80
2021/03/27 09:59:32;;;;;;;14.68;5.05;;;;;;;8.80;65.10;100908.44;5031389;28;20045;-77
2021/03/27 10:02:13;;;;;;;11.07;4.13;;;;;;;9.48;60.29;100901.84;5030307;28;20122;-81
2021/03/27 10:04:59;;;;;;;10.05;4.22;;;;;;;10.00;60.35;100912.66;5030243;28;20056;-78
2021/03/27 10:08:00;;;;;;;14.00;4.55;;;;;;;10.29;57.75;100908.88;5031094;28;20070;-79
2021/03/27 10:10:50;;;;;;;15.27;5.25;;;;;;;10.48;57.50;100908.66;5029581;28;20123;-79
2021/03/27 10:13:37;;;;;;;9.80;5.05;;;;;;;10.89;55.43;100910.72;5029901;28;20116;-79
2021/03/27 10:16:10;;;;;;;14.07;5.50;;;;;;;11.14;57.11;100911.63;5030233;28;20045;-79
2021/03/27 10:18:55;;;;;;;9.82;4.30;;;;;;;11.42;53.96;100912.19;5030785;28;20355;-80
2021/03/27 10:21:44;;;;;;;10.37;4.07;;;;;;;10.04;56.32;100915.81;5033704;28;20048;-79
2021/03/27 10:24:34;;;;;;;11.07;4.25;;;;;;;9.81;57.02;100910.13;5050870;28;20466;-79
2021/03/27 10:27:10;;;;;;;8.68;3.85;;;;;;;9.68;57.35;100924.69;5034070;28;20037;-78
2021/03/27 10:29:53;;;;;;;7.93;4.25;;;;;;;9.99;55.16;100913.63;5050607;28;20111;-78
2021/03/27 10:32:40;;;;;;;6.47;3.60;;;;;;;10.97;53.99;100910.75;5034313;28;20057;-79
2021/03/27 10:35:33;;;;;;;9.90;4.40;;;;;;;10.06;56.47;100927.19;5034961;28;20040;-78
2021/03/27 10:38:14;;;;;;;13.13;4.70;;;;;;;9.48;57.94;100924.03;5033313;28;20075;-77
2021/03/27 10:40:57;;;;;;;14.65;5.65;;;;;;;9.72;56.42;100925.25;5033969;28;20041;-78
2021/03/27 10:43:48;;;;;;;10.60;4.30;;;;;;;11.18;53.75;100929.03;5034895;28;20045;-77
2021/03/27 10:46:49;;;;;;;13.15;4.47;;;;;;;11.32;54.17;100925.72;5034791;28;20116;-78
2021/03/27 10:49:35;;;;;;;6.88;3.10;;;;;;;11.02;53.03;100928.97;5030421;28;20840;-79
2021/03/27 10:52:28;;;;;;;9.52;3.70;;;;;;;10.04;53.10;100940.66;5034411;28;20123;-78
2021/03/27 10:54:56;;;;;;;13.57;4.55;;;;;;;9.54;55.46;100943.88;5033673;28;20100;-79
2021/03/27 10:57:50;;;;;;;11.35;3.25;;;;;;;8.72;56.71;100939.41;5033488;28;20390;-79
2021/03/27 11:00:45;;;;;;;9.52;3.65;;;;;;;8.31;59.54;100960.06;5034403;28;20037;-79
2021/03/27 11:03:10;;;;;;;7.97;3.35;;;;;;;8.06;62.13;100980.13;5033549;28;20068;-79
2021/03/27 11:05:50;;;;;;;9.80;3.37;;;;;;;7.93;62.32;100975.91;5034508;28;20077;-79
2021/03/27 11:08:43;;;;;;;9.60;3.25;;;;;;;7.93;63.42;101010.47;5034098;28;20044;-78
2021/03/27 11:11:59;;;;;;;5.45;2.28;;;;;;;5.86;70.18;101026.44;5033757;28;20064;-80
2021/03/27 11:15:01;;;;;;;3.58;2.20;;;;;;;4.85;76.92;101042.41;5034455;28;20041;-78
2021/03/27 11:17:49;;;;;;;9.65;2.50;;;;;;;4.80;78.85;101052.47;5033051;28;20091;-78
2021/03/27 11:20:51;;;;;;;4.53;1.83;;;;;;;4.58;78.60;101048.81;5033643;28;20051;-84
2021/03/27 11:23:31;;;;;;;6.38;2.25;;;;;;;5.16;80.23;101042.66;5034806;28;20056;-80
2021/03/27 11:26:21;;;;;;;5.30;1.90;;;;;;;5.31;78.98;101046.75;5033394;28;20041;-81
2021/03/27 11:28:51;;;;;;;4.75;2.42;;;;;;;5.50;78.16;101059.38;5033096;28;20041;-81
2021/03/27 11:31:40;;;;;;;3.38;1.80;;;;;;;5.29;78.11;101060.13;5033000;28;20137;-81
2021/03/27 11:34:23;;;;;;;6.28;2.00;;;;;;;5.23;76.69;101070.34;5034489;28;20045;-80
2021/03/27 11:37:00;;;;;;;5.78;2.30;;;;;;;5.56;77.65;101076.59;5033375;28;20083;-81
2021/03/27 11:39:49;;;;;;;9.13;2.67;;;;;;;6.00;76.77;101074.88;5032875;28;20047;-81
2021/03/27 11:42:34;;;;;;;9.35;2.58;;;;;;;7.18;76.12;101073.75;5033997;28;20103;-79
2021/03/27 11:45:09;;;;;;;4.43;2.40;;;;;;;8.46;69.29;101073.09;5049637;28;20173;-80
2021/03/27 11:48:00;;;;;;;3.60;2.07;;;;;;;8.69;70.17;101083.44;5032325;28;20059;-79
2021/03/27 11:50:50;;;;;;;7.15;2.00;;;;;;;8.98;66.73;101076.22;5032858;28;20037;-82
2021/03/27 11:53:54;;;;;;;4.80;1.90;;;;;;;9.99;63.61;101086.16;5049328;28;20075;-81
2021/03/27 11:56:41;;;;;;;6.40;1.58;;;;;;;10.29;60.82;101072.50;5027953;28;20132;-81
2021/03/27 12:02:04;;;;;;;3.75;2.15;;;;;;;10.18;64.94;101085.19;5031660;28;20033;-78
2021/03/27 12:04:58;;;;;;;4.37;1.87;;;;;;;9.46;65.39;101082.41;5034081;28;20041;-80
2021/03/27 12:07:32;;;;;;;3.33;1.92;;;;;;;9.64;65.15;101077.09;5033926;28;20061;-79
2021/03/27 12:10:20;;;;;;;7.10;2.03;;;;;;;10.05;65.09;101080.25;5013370;28;20038;-79
2021/03/27 12:13:02;;;;;;;5.30;2.28;;;;;;;9.94;64.90;101089.28;5012817;28;20042;-79
2021/03/27 12:15:40;;;;;;;5.75;2.38;;;;;;;9.55;62.54;101086.00;5028394;28;20057;-77
2021/03/27 12:18:12;;;;;;;6.43;2.25;;;;;;;8.62;65.74;101092.00;5027605;28;20141;-76
2021/03/27 12:20:44;;;;;;;6.03;2.78;;;;;;;8.63;65.18;101092.81;5028949;28;20441;-77
2021/03/27 12:23:20;;;;;;;5.57;2.40;;;;;;;8.28;65.37;101094.19;5013361;28;20041;-76
2021/03/27 12:25:51;;;;;;;8.13;2.83;;;;;;;8.00;65.82;101104.66;5013222;28;20045;-76
2021/03/27 12:28:45;;;;;;;4.47;1.88;;;;;;;8.05;67.36;101106.91;5012835;28;20049;-76
2021/03/27 12:31:31;;;;;;;7.72;2.15;;;;;;;7.94;67.06;101107.03;5011029;28;20045;-76
2021/03/27 12:34:08;;;;;;;7.60;1.83;;;;;;;7.96;67.82;101113.03;5028613;28;20625;-76
2021/03/27 12:36:45;;;;;;;5.78;1.50;;;;;;;7.53;67.51;101103.53;5028575;28;20061;-76
2021/03/27 12:39:21;;;;;;;6.45;1.50;;;;;;;7.21;67.87;101135.53;5012548;28;20038;-76
2021/03/27 12:41:57;;;;;;;4.20;1.40;;;;;;;7.41;69.15;101124.03;5028571;28;20554;-77
2021/03/27 12:44:44;;;;;;;10.10;2.10;;;;;;;8.56;64.61;101118.31;5012510;28;20025;-76
2021/03/27 12:47:37;;;;;;;7.40;1.48;;;;;;;8.37;66.87;101130.59;5012815;28;20077;-77
2021/03/27 12:50:23;;;;;;;8.05;1.80;;;;;;;8.15;65.53;101133.53;5028468;28;20077;-76
2021/03/27 12:53:08;;;;;;;6.53;1.67;;;;;;;7.64;66.06;101116.72;5012572;28;20052;-76